createdAt,value
2022-11-17T00:01:53.165Z,11.99
2022-11-17T00:12:20.546Z,12.04
2022-11-17T00:22:25.789Z,11.93
2022-11-17T00:32:47.664Z,12.11
2022-11-17T00:42:50.602Z,12.00
2022-11-17T00:52:55.164Z,12.04
2022-11-17T01:02:58.140Z,12.03
2022-11-17T01:13:02.661Z,12.05
2022-11-17T01:23:05.572Z,11.93
2022-11-17T01:33:09.896Z,11.94
2022-11-17T01:43:12.788Z,11.87
2022-11-17T01:53:20.362Z,11.77
2022-11-17T02:03:25.730Z,11.79
2022-11-17T02:13:30.216Z,11.70
2022-11-17T02:24:04.730Z,11.71
2022-11-17T02:34:23.766Z,11.71
2022-11-17T02:44:30.346Z,11.60
2022-11-17T02:54:35.183Z,11.55
2022-11-17T03:04:47.065Z,11.45
2022-11-17T03:15:02.399Z,11.36
2022-11-17T03:25:11.953Z,11.56
2022-11-17T03:35:19.917Z,11.51
2022-11-17T03:45:26.486Z,11.57
2022-11-17T03:55:37.801Z,11.51
2022-11-17T04:05:40.843Z,11.55
2022-11-17T04:16:01.683Z,11.51
2022-11-17T04:26:22.563Z,11.58
2022-11-17T04:36:28.485Z,11.60
2022-11-17T04:46:32.875Z,11.45
2022-11-17T04:56:38.000Z,11.59
2022-11-17T05:06:43.211Z,11.51
2022-11-17T05:17:10.118Z,11.61
2022-11-17T05:27:13.880Z,11.66
2022-11-17T05:37:18.315Z,11.65
2022-11-17T05:47:21.353Z,11.68
2022-11-17T05:57:30.320Z,11.73
2022-11-17T06:07:33.593Z,11.71
2022-11-17T06:17:42.227Z,11.85
2022-11-17T06:27:46.728Z,11.61
2022-11-17T06:37:51.003Z,11.51
2022-11-17T06:47:54.407Z,11.32
2022-11-17T06:58:01.916Z,11.16
2022-11-17T07:08:08.361Z,10.97
2022-11-17T07:18:13.112Z,11.23
2022-11-17T07:28:35.812Z,11.33
2022-11-17T07:38:41.489Z,11.39
2022-11-17T07:48:44.860Z,11.52
2022-11-17T07:58:49.279Z,11.60
2022-11-17T08:08:53.716Z,11.63
2022-11-17T08:18:58.611Z,11.66
2022-11-17T08:29:02.088Z,11.68
2022-11-17T08:39:06.938Z,11.91
2022-11-17T08:49:10.029Z,11.75
2022-11-17T08:59:14.628Z,11.72
2022-11-17T09:09:18.761Z,11.81
2022-11-17T09:19:23.236Z,11.80
2022-11-17T09:29:27.581Z,11.91
2022-11-17T09:39:31.614Z,12.04
2022-11-17T09:49:43.575Z,12.15
2022-11-17T09:59:53.475Z,12.14
2022-11-17T10:09:56.799Z,12.33
2022-11-17T10:20:01.254Z,12.49
2022-11-17T10:30:08.095Z,12.45
2022-11-17T10:40:25.023Z,12.44
2022-11-17T10:50:28.982Z,12.49
2022-11-17T11:00:35.020Z,12.70
2022-11-17T11:10:38.145Z,12.77
2022-11-17T11:20:48.859Z,12.77
2022-11-17T11:31:02.785Z,12.89
2022-11-17T11:41:23.686Z,13.01
2022-11-17T11:51:30.346Z,12.94
2022-11-17T12:01:46.887Z,13.03
2022-11-17T12:12:11.130Z,13.10
2022-11-17T12:22:39.443Z,13.16
2022-11-17T12:32:55.606Z,13.35
2022-11-17T12:43:22.646Z,13.29
2022-11-17T12:53:48.582Z,13.72
2022-11-17T13:03:58.983Z,13.70
2022-11-17T13:14:10.856Z,14.18
2022-11-17T13:24:30.310Z,13.92
2022-11-17T13:34:33.498Z,13.79
2022-11-17T13:44:38.466Z,13.76
2022-11-17T13:54:44.972Z,13.87
2022-11-17T14:05:21.877Z,13.77
2022-11-17T14:15:27.881Z,13.54
2022-11-17T14:25:31.277Z,13.59
2022-11-17T14:35:35.939Z,13.50
2022-11-17T14:45:38.956Z,13.49
2022-11-17T14:55:43.360Z,13.35
2022-11-17T15:05:47.189Z,13.22
2022-11-17T15:15:51.648Z,13.13
2022-11-17T15:25:54.603Z,13.15
2022-11-17T15:36:06.523Z,13.04
2022-11-17T15:46:11.567Z,13.06
2022-11-17T15:56:18.983Z,12.98
2022-11-17T16:06:22.001Z,12.77
2022-11-17T16:16:29.161Z,12.75
2022-11-17T16:26:35.194Z,12.64
2022-11-17T16:36:41.595Z,12.53
2022-11-17T16:46:46.743Z,12.60
2022-11-17T16:56:51.024Z,12.48
2022-11-17T17:06:54.912Z,12.44
2022-11-17T17:16:59.547Z,12.36
2022-11-17T17:27:02.613Z,12.34
2022-11-17T17:37:07.092Z,12.28
2022-11-17T17:47:10.112Z,12.31
2022-11-17T17:57:14.524Z,12.26
2022-11-17T18:07:17.690Z,12.26
2022-11-17T18:17:22.120Z,12.07
2022-11-17T18:27:25.142Z,11.82
2022-11-17T18:37:30.008Z,11.80
2022-11-17T18:47:33.115Z,11.83
2022-11-17T18:57:40.783Z,11.92
2022-11-17T19:07:48.444Z,11.84
2022-11-17T19:17:52.855Z,11.73
2022-11-17T19:27:55.900Z,11.60
2022-11-17T19:38:00.667Z,11.66
2022-11-17T19:48:03.667Z,11.61
2022-11-17T19:58:07.982Z,11.64
2022-11-17T20:08:10.986Z,11.81
2022-11-17T20:18:15.346Z,11.81
2022-11-17T20:28:18.375Z,11.72
2022-11-17T20:38:22.734Z,11.78
2022-11-17T20:48:26.205Z,11.61
2022-11-17T20:58:31.443Z,11.73
2022-11-17T21:08:36.281Z,11.80
2022-11-17T21:18:46.841Z,11.84
2022-11-17T21:28:50.179Z,11.79
2022-11-17T21:38:55.104Z,11.74
2022-11-17T21:48:59.844Z,11.52
2022-11-17T21:59:06.356Z,11.50
2022-11-17T22:09:09.874Z,11.31
2022-11-17T22:19:15.917Z,11.27
2022-11-17T22:29:21.527Z,11.15
2022-11-17T22:39:26.059Z,11.07
2022-11-17T22:49:28.900Z,10.94
2022-11-17T22:59:33.256Z,11.18
2022-11-17T23:09:36.198Z,10.91
2022-11-17T23:19:40.448Z,11.10
2022-11-17T23:29:43.475Z,11.23
2022-11-17T23:39:47.723Z,11.24
2022-11-17T23:49:50.654Z,11.21
2022-11-17T23:59:54.963Z,11.24
